createdAt,value
2019-03-17T00:00:12.668Z,100.00
2019-03-17T00:02:41.321Z,100.00
2019-03-17T00:05:11.085Z,100.00
2019-03-17T00:07:40.739Z,100.00
2019-03-17T00:10:09.594Z,100.00
2019-03-17T00:12:38.259Z,100.00
2019-03-17T00:15:07.351Z,100.00
2019-03-17T00:17:35.921Z,100.00
2019-03-17T00:20:06.123Z,100.00
2019-03-17T00:22:34.762Z,100.00
2019-03-17T00:25:08.991Z,100.00
2019-03-17T00:27:33.993Z,100.00
2019-03-17T00:30:03.006Z,100.00
2019-03-17T00:32:31.675Z,100.00
2019-03-17T00:35:00.380Z,100.00
2019-03-17T00:37:29.158Z,100.00
2019-03-17T00:39:57.659Z,100.00
2019-03-17T00:42:26.341Z,100.00
2019-03-17T00:44:54.926Z,100.00
2019-03-17T00:47:23.937Z,100.00
2019-03-17T00:49:52.422Z,100.00
2019-03-17T00:52:21.023Z,100.00
2019-03-17T00:54:49.580Z,100.00
2019-03-17T00:57:19.061Z,100.00
2019-03-17T00:59:47.553Z,100.00
2019-03-17T01:02:16.181Z,100.00
2019-03-17T01:04:55.657Z,100.00
2019-03-17T01:07:15.001Z,100.00
2019-03-17T01:09:43.520Z,100.00
2019-03-17T01:12:12.373Z,100.00
2019-03-17T01:14:40.863Z,100.00
2019-03-17T01:17:09.614Z,100.00
2019-03-17T01:19:38.164Z,100.00
2019-03-17T01:22:06.833Z,100.00
2019-03-17T01:24:35.325Z,100.00
2019-03-17T01:27:03.941Z,100.00
2019-03-17T01:29:32.498Z,100.00
2019-03-17T01:32:01.114Z,100.00
2019-03-17T01:34:29.691Z,100.00
2019-03-17T01:36:58.345Z,100.00
2019-03-17T01:39:26.839Z,100.00
2019-03-17T01:41:55.448Z,100.00
2019-03-17T01:44:24.003Z,100.00
2019-03-17T01:46:52.614Z,100.00
2019-03-17T01:49:21.098Z,100.00
2019-03-17T01:51:51.348Z,100.00
2019-03-17T01:54:19.874Z,100.00
2019-03-17T01:56:48.585Z,100.00
2019-03-17T01:59:17.256Z,100.00
2019-03-17T02:01:45.839Z,100.00
2019-03-17T02:04:14.449Z,100.00
2019-03-17T02:06:43.055Z,100.00
2019-03-17T02:09:11.701Z,100.00
2019-03-17T02:11:40.266Z,100.00
2019-03-17T02:14:08.874Z,100.00
2019-03-17T02:16:37.490Z,100.00
2019-03-17T02:19:06.153Z,100.00
2019-03-17T02:21:35.220Z,100.00
2019-03-17T02:24:03.812Z,100.00
2019-03-17T02:26:32.458Z,100.00
2019-03-17T02:29:00.958Z,100.00
2019-03-17T02:31:29.836Z,100.00
2019-03-17T02:33:58.352Z,100.00
2019-03-17T02:36:26.914Z,100.00
2019-03-17T02:38:55.418Z,100.00
2019-03-17T02:41:23.995Z,100.00
2019-03-17T02:43:53.585Z,100.00
2019-03-17T02:46:22.199Z,100.00
2019-03-17T02:48:50.679Z,100.00
2019-03-17T02:51:19.252Z,100.00
2019-03-17T02:53:47.721Z,100.00
2019-03-17T02:56:16.321Z,100.00
2019-03-17T02:58:44.873Z,100.00
2019-03-17T03:01:13.602Z,100.00
2019-03-17T03:03:42.183Z,100.00
2019-03-17T03:06:10.765Z,100.00
2019-03-17T03:08:39.234Z,100.00
2019-03-17T03:11:07.867Z,100.00
2019-03-17T03:13:36.345Z,100.00
2019-03-17T03:16:06.017Z,100.00
2019-03-17T03:18:34.988Z,100.00
2019-03-17T03:21:03.601Z,100.00
2019-03-17T03:23:32.164Z,100.00
2019-03-17T03:26:00.957Z,100.00
2019-03-17T03:28:29.463Z,100.00
2019-03-17T03:30:58.121Z,100.00
2019-03-17T03:33:27.236Z,100.00
2019-03-17T03:36:09.899Z,100.00
2019-03-17T03:38:26.225Z,100.00
2019-03-17T03:40:54.809Z,100.00
2019-03-17T03:43:23.638Z,100.00
2019-03-17T03:45:52.222Z,100.00
2019-03-17T03:48:20.737Z,100.00
2019-03-17T03:50:49.352Z,100.00
2019-03-17T03:53:17.917Z,100.00
2019-03-17T03:55:46.516Z,100.00
2019-03-17T03:58:15.406Z,100.00
2019-03-17T04:00:44.377Z,100.00
2019-03-17T04:03:12.873Z,100.00
2019-03-17T04:05:41.466Z,100.00
2019-03-17T04:08:10.113Z,100.00
2019-03-17T04:10:38.727Z,100.00
2019-03-17T04:13:07.308Z,100.00
2019-03-17T04:15:35.965Z,100.00
2019-03-17T04:18:04.675Z,100.00
2019-03-17T04:20:33.577Z,100.00
2019-03-17T04:23:02.152Z,100.00
2019-03-17T04:25:30.979Z,100.00
2019-03-17T04:28:01.474Z,100.00
2019-03-17T04:30:30.336Z,100.00
2019-03-17T04:32:58.945Z,100.00
2019-03-17T04:35:27.530Z,100.00
2019-03-17T04:37:56.090Z,100.00
2019-03-17T04:40:24.636Z,100.00
2019-03-17T04:42:53.178Z,100.00
2019-03-17T04:45:21.760Z,100.00
2019-03-17T04:47:50.367Z,100.00
2019-03-17T04:50:18.932Z,100.00
2019-03-17T04:52:47.797Z,100.00
2019-03-17T04:55:16.477Z,100.00
2019-03-17T04:57:45.042Z,100.00
2019-03-17T05:00:13.944Z,100.00
2019-03-17T05:02:42.459Z,100.00
2019-03-17T05:05:11.139Z,100.00
2019-03-17T05:07:39.724Z,100.00
2019-03-17T05:10:10.126Z,100.00
2019-03-17T05:12:38.685Z,100.00
2019-03-17T05:15:09.998Z,100.00
2019-03-17T05:17:38.567Z,100.00
2019-03-17T05:20:09.389Z,100.00
2019-03-17T05:22:37.912Z,100.00
2019-03-17T05:25:07.524Z,100.00
2019-03-17T05:27:36.092Z,100.00
2019-03-17T05:30:07.574Z,100.00
2019-03-17T05:32:36.408Z,100.00
2019-03-17T05:35:06.426Z,100.00
2019-03-17T05:37:35.004Z,100.00
2019-03-17T05:40:05.418Z,100.00
2019-03-17T05:42:34.102Z,100.00
2019-03-17T05:45:02.989Z,100.00
2019-03-17T05:47:31.809Z,100.00
2019-03-17T05:50:00.467Z,100.00
2019-03-17T05:52:29.074Z,100.00
2019-03-17T05:54:57.639Z,100.00
2019-03-17T05:57:26.261Z,100.00
2019-03-17T05:59:54.759Z,100.00
2019-03-17T06:02:23.409Z,100.00
2019-03-17T06:04:51.980Z,100.00
2019-03-17T06:07:20.511Z,100.00
2019-03-17T06:09:49.052Z,100.00
2019-03-17T06:12:17.670Z,100.00
2019-03-17T06:14:46.238Z,100.00
2019-03-17T06:17:14.725Z,100.00
2019-03-17T06:19:43.243Z,100.00
2019-03-17T06:22:11.753Z,100.00
2019-03-17T06:24:40.350Z,100.00
2019-03-17T06:27:08.921Z,100.00
2019-03-17T06:29:37.534Z,100.00
2019-03-17T06:32:06.097Z,100.00
2019-03-17T06:34:37.210Z,100.00
2019-03-17T06:37:05.999Z,100.00
2019-03-17T06:39:34.608Z,100.00
2019-03-17T06:42:03.095Z,100.00
2019-03-17T06:44:31.725Z,100.00
2019-03-17T06:47:00.536Z,100.00
2019-03-17T06:49:29.096Z,100.00
2019-03-17T06:51:57.586Z,100.00
2019-03-17T06:54:26.164Z,100.00
2019-03-17T06:56:54.647Z,100.00
2019-03-17T06:59:23.592Z,100.00
2019-03-17T07:01:52.084Z,100.00
2019-03-17T07:04:20.601Z,100.00
2019-03-17T07:06:49.101Z,100.00
2019-03-17T07:09:17.832Z,100.00
2019-03-17T07:11:46.431Z,100.00
2019-03-17T07:14:15.092Z,100.00
2019-03-17T07:16:43.950Z,100.00
2019-03-17T07:19:12.578Z,100.00
2019-03-17T07:21:41.135Z,100.00
2019-03-17T07:24:09.735Z,100.00
2019-03-17T07:26:38.632Z,100.00
2019-03-17T07:29:07.317Z,100.00
2019-03-17T07:31:35.881Z,100.00
2019-03-17T07:34:04.559Z,100.00
2019-03-17T07:36:33.380Z,100.00
2019-03-17T07:39:11.130Z,100.00
2019-03-17T07:41:32.470Z,100.00
2019-03-17T07:44:01.061Z,100.00
2019-03-17T07:46:29.668Z,100.00
2019-03-17T07:48:59.353Z,100.00
2019-03-17T07:51:29.046Z,100.00
2019-03-17T07:53:57.953Z,100.00
2019-03-17T07:56:26.541Z,100.00
2019-03-17T07:58:55.052Z,100.00
2019-03-17T08:01:23.902Z,100.00
2019-03-17T08:03:52.543Z,100.00
2019-03-17T08:06:21.055Z,100.00
2019-03-17T08:08:49.617Z,100.00
2019-03-17T08:11:18.255Z,100.00
2019-03-17T08:13:46.854Z,100.00
2019-03-17T08:16:15.421Z,100.00
2019-03-17T08:18:44.011Z,100.00
2019-03-17T08:21:12.630Z,100.00
2019-03-17T08:23:41.195Z,100.00
2019-03-17T08:26:10.066Z,99.50
2019-03-17T08:28:38.812Z,98.78
2019-03-17T08:31:07.488Z,96.78
2019-03-17T08:33:36.086Z,96.06
2019-03-17T08:36:05.726Z,95.52
2019-03-17T08:38:34.302Z,95.12
2019-03-17T08:41:02.857Z,94.80
2019-03-17T08:43:31.731Z,93.82
2019-03-17T08:46:00.237Z,93.12
2019-03-17T08:48:29.238Z,93.71
2019-03-17T08:50:57.885Z,95.20
2019-03-17T08:53:26.521Z,92.01
2019-03-17T08:55:55.106Z,89.51
2019-03-17T08:58:24.012Z,90.98
2019-03-17T09:00:52.587Z,88.84
2019-03-17T09:03:21.145Z,90.19
2019-03-17T09:05:50.083Z,89.29
2019-03-17T09:08:18.750Z,91.94
2019-03-17T09:10:47.377Z,89.33
2019-03-17T09:13:16.006Z,88.31
2019-03-17T09:15:44.568Z,87.22
2019-03-17T09:18:13.181Z,87.06
2019-03-17T09:20:41.673Z,85.76
2019-03-17T09:23:10.338Z,87.31
2019-03-17T09:25:38.927Z,87.46
2019-03-17T09:28:07.572Z,86.85
2019-03-17T09:30:36.154Z,85.79
2019-03-17T09:33:05.189Z,84.41
2019-03-17T09:35:33.739Z,84.87
2019-03-17T09:38:02.476Z,82.65
2019-03-17T09:40:31.341Z,83.81
2019-03-17T09:42:59.966Z,81.12
2019-03-17T09:45:28.514Z,82.03
2019-03-17T09:47:57.043Z,80.73
2019-03-17T09:50:25.544Z,77.61
2019-03-17T09:52:54.118Z,76.67
2019-03-17T09:55:22.601Z,76.18
2019-03-17T09:57:51.288Z,77.66
2019-03-17T10:00:23.567Z,79.75
2019-03-17T10:02:52.285Z,78.41
2019-03-17T10:05:20.777Z,79.84
2019-03-17T10:07:49.315Z,79.46
2019-03-17T10:10:22.438Z,80.28
2019-03-17T10:12:51.074Z,79.94
2019-03-17T10:15:20.258Z,80.23
2019-03-17T10:17:48.819Z,80.65
2019-03-17T10:20:18.755Z,80.77
2019-03-17T10:22:47.337Z,80.87
2019-03-17T10:25:17.354Z,82.42
2019-03-17T10:27:46.444Z,81.85
2019-03-17T10:30:19.236Z,82.12
2019-03-17T10:32:48.843Z,81.74
2019-03-17T10:35:17.357Z,80.96
2019-03-17T10:37:48.172Z,81.21
2019-03-17T10:40:23.590Z,80.32
2019-03-17T10:42:52.629Z,80.70
2019-03-17T10:45:21.232Z,80.89
2019-03-17T10:47:49.904Z,81.06
2019-03-17T10:50:20.547Z,81.42
2019-03-17T10:52:49.179Z,81.28
2019-03-17T10:55:17.676Z,81.35
2019-03-17T10:57:46.240Z,80.79
2019-03-17T11:00:16.284Z,79.10
2019-03-17T11:02:44.913Z,78.43
2019-03-17T11:05:13.920Z,78.46
2019-03-17T11:07:42.749Z,78.70
2019-03-17T11:10:12.749Z,79.47
2019-03-17T11:12:43.520Z,80.29
2019-03-17T11:15:15.124Z,81.21
2019-03-17T11:17:44.343Z,81.60
2019-03-17T11:20:13.839Z,81.45
2019-03-17T11:22:42.472Z,81.44
2019-03-17T11:25:15.838Z,81.56
2019-03-17T11:27:44.406Z,80.95
2019-03-17T11:30:17.150Z,80.15
2019-03-17T11:32:48.861Z,79.30
2019-03-17T11:35:17.475Z,79.44
2019-03-17T11:37:47.268Z,78.55
2019-03-17T11:40:17.835Z,79.57
2019-03-17T11:42:49.485Z,80.05
2019-03-17T11:45:17.769Z,80.66
2019-03-17T11:47:46.441Z,79.74
2019-03-17T11:50:20.933Z,80.11
2019-03-17T11:52:49.738Z,79.86
2019-03-17T11:55:19.097Z,80.14
2019-03-17T11:57:47.700Z,79.75
2019-03-17T12:00:18.426Z,80.74
2019-03-17T12:02:47.005Z,79.81
2019-03-17T12:05:15.966Z,79.92
2019-03-17T12:07:44.692Z,81.02
2019-03-17T12:10:15.334Z,81.15
2019-03-17T12:12:43.927Z,80.75
2019-03-17T12:15:17.724Z,79.65
2019-03-17T12:17:46.635Z,80.12
2019-03-17T12:20:15.845Z,78.89
2019-03-17T12:22:44.901Z,79.84
2019-03-17T12:25:14.900Z,80.50
2019-03-17T12:27:46.582Z,81.25
2019-03-17T12:30:25.265Z,82.38
2019-03-17T12:32:54.797Z,82.35
2019-03-17T12:35:23.437Z,82.86
2019-03-17T12:37:52.053Z,82.88
2019-03-17T12:40:20.698Z,82.67
2019-03-17T12:42:49.697Z,82.65
2019-03-17T12:45:18.751Z,83.09
2019-03-17T12:47:47.880Z,83.27
2019-03-17T12:50:21.376Z,84.40
2019-03-17T12:52:49.905Z,85.33
2019-03-17T12:55:18.438Z,85.07
2019-03-17T12:57:47.000Z,88.17
2019-03-17T13:00:20.390Z,85.65
2019-03-17T13:02:48.941Z,97.66
2019-03-17T13:05:18.205Z,100.00
2019-03-17T13:07:46.758Z,100.00
2019-03-17T13:10:22.099Z,100.00
2019-03-17T13:12:51.203Z,100.00
2019-03-17T13:15:19.863Z,100.00
2019-03-17T13:17:48.628Z,100.00
2019-03-17T13:20:18.470Z,100.00
2019-03-17T13:22:47.185Z,100.00
2019-03-17T13:25:16.490Z,100.00
2019-03-17T13:27:45.070Z,100.00
2019-03-17T13:30:14.818Z,100.00
2019-03-17T13:32:44.658Z,100.00
2019-03-17T13:35:13.333Z,100.00
2019-03-17T13:37:42.101Z,100.00
2019-03-17T13:40:28.720Z,100.00
2019-03-17T13:42:48.675Z,100.00
2019-03-17T13:45:17.261Z,100.00
2019-03-17T13:47:46.281Z,100.00
2019-03-17T13:50:19.211Z,100.00
2019-03-17T13:52:48.947Z,100.00
2019-03-17T13:55:17.741Z,100.00
2019-03-17T13:57:55.565Z,100.00
2019-03-17T14:00:24.223Z,100.00
2019-03-17T14:02:52.977Z,100.00
2019-03-17T14:05:21.655Z,100.00
2019-03-17T14:07:50.270Z,100.00
2019-03-17T14:10:19.199Z,100.00
2019-03-17T14:12:47.881Z,100.00
2019-03-17T14:15:16.684Z,100.00
2019-03-17T14:17:45.803Z,100.00
2019-03-17T14:20:20.949Z,100.00
2019-03-17T14:22:49.894Z,100.00
2019-03-17T14:25:24.345Z,100.00
2019-03-17T14:27:53.778Z,100.00
2019-03-17T14:30:22.370Z,100.00
2019-03-17T14:32:51.522Z,100.00
2019-03-17T14:35:22.918Z,100.00
2019-03-17T14:37:53.264Z,100.00
2019-03-17T14:40:24.790Z,100.00
2019-03-17T14:42:55.409Z,100.00
2019-03-17T14:45:23.989Z,100.00
2019-03-17T14:47:52.578Z,100.00
2019-03-17T14:50:22.525Z,100.00
2019-03-17T14:52:51.117Z,100.00
2019-03-17T14:55:19.625Z,100.00
2019-03-17T14:57:48.225Z,100.00
2019-03-17T15:00:24.378Z,100.00
2019-03-17T15:02:53.136Z,100.00
2019-03-17T15:05:21.720Z,100.00
2019-03-17T15:07:50.232Z,100.00
2019-03-17T15:10:24.379Z,100.00
2019-03-17T15:12:53.080Z,100.00
2019-03-17T15:15:23.625Z,100.00
2019-03-17T15:17:52.248Z,100.00
2019-03-17T15:20:22.690Z,100.00
2019-03-17T15:22:51.314Z,100.00
2019-03-17T15:25:20.062Z,100.00
2019-03-17T15:27:48.694Z,100.00
2019-03-17T15:30:28.727Z,100.00
2019-03-17T15:32:58.394Z,100.00
2019-03-17T15:35:27.011Z,100.00
2019-03-17T15:37:55.821Z,100.00
2019-03-17T15:40:24.407Z,100.00
2019-03-17T15:42:54.074Z,100.00
2019-03-17T15:45:26.002Z,100.00
2019-03-17T15:47:55.096Z,100.00
2019-03-17T15:50:29.557Z,100.00
2019-03-17T15:52:59.220Z,100.00
2019-03-17T15:55:27.836Z,100.00
2019-03-17T15:57:56.400Z,100.00
2019-03-17T16:00:27.023Z,100.00
2019-03-17T16:02:56.204Z,100.00
2019-03-17T16:05:25.083Z,100.00
2019-03-17T16:07:54.158Z,100.00
2019-03-17T16:10:24.053Z,100.00
2019-03-17T16:12:52.801Z,100.00
2019-03-17T16:15:21.846Z,100.00
2019-03-17T16:17:50.482Z,100.00
2019-03-17T16:20:26.033Z,100.00
2019-03-17T16:22:54.616Z,100.00
2019-03-17T16:25:28.158Z,100.00
2019-03-17T16:27:56.911Z,100.00
2019-03-17T16:30:30.200Z,100.00
2019-03-17T16:32:58.877Z,100.00
2019-03-17T16:35:27.411Z,100.00
2019-03-17T16:37:56.075Z,100.00
2019-03-17T16:40:29.255Z,100.00
2019-03-17T16:42:58.277Z,100.00
2019-03-17T16:45:26.849Z,100.00
2019-03-17T16:47:55.578Z,100.00
2019-03-17T16:50:25.345Z,100.00
2019-03-17T16:52:53.910Z,100.00
2019-03-17T16:55:22.558Z,100.00
2019-03-17T16:57:51.488Z,100.00
2019-03-17T17:00:29.667Z,100.00
2019-03-17T17:02:58.360Z,100.00
2019-03-17T17:05:28.851Z,100.00
2019-03-17T17:07:57.448Z,100.00
2019-03-17T17:10:27.198Z,100.00
2019-03-17T17:12:56.480Z,100.00
2019-03-17T17:15:28.107Z,100.00
2019-03-17T17:17:59.049Z,100.00
2019-03-17T17:20:33.391Z,100.00
2019-03-17T17:23:02.116Z,100.00
2019-03-17T17:25:30.719Z,100.00
2019-03-17T17:27:59.410Z,100.00
2019-03-17T17:30:28.030Z,100.00
2019-03-17T17:32:56.715Z,100.00
2019-03-17T17:35:25.350Z,100.00
2019-03-17T17:37:53.963Z,100.00
2019-03-17T17:40:23.597Z,100.00
2019-03-17T17:42:53.548Z,100.00
2019-03-17T17:45:25.418Z,100.00
2019-03-17T17:47:54.140Z,100.00
2019-03-17T17:50:24.824Z,100.00
2019-03-17T17:52:53.490Z,100.00
2019-03-17T17:55:22.010Z,100.00
2019-03-17T17:57:52.757Z,100.00
2019-03-17T18:00:25.868Z,100.00
2019-03-17T18:02:54.480Z,100.00
2019-03-17T18:05:23.507Z,100.00
2019-03-17T18:07:52.843Z,99.04
2019-03-17T18:10:21.494Z,96.75
2019-03-17T18:12:50.147Z,96.56
2019-03-17T18:15:27.081Z,96.17
2019-03-17T18:17:55.856Z,94.33
2019-03-17T18:20:24.379Z,92.49
2019-03-17T18:22:53.271Z,93.78
2019-03-17T18:25:22.536Z,93.19
2019-03-17T18:27:51.549Z,91.90
2019-03-17T18:30:26.750Z,91.28
2019-03-17T18:32:55.472Z,91.56
2019-03-17T18:35:23.984Z,91.15
2019-03-17T18:37:52.614Z,90.68
2019-03-17T18:40:22.190Z,91.15
2019-03-17T18:42:51.218Z,91.67
2019-03-17T18:45:23.015Z,90.37
2019-03-17T18:47:51.702Z,91.96
2019-03-17T18:50:21.256Z,90.90
2019-03-17T18:52:50.089Z,92.22
2019-03-17T18:55:19.588Z,94.20
2019-03-17T18:57:48.198Z,94.96
2019-03-17T19:00:21.071Z,93.36
2019-03-17T19:02:49.675Z,94.73
2019-03-17T19:05:20.222Z,96.42
2019-03-17T19:07:48.869Z,96.21
2019-03-17T19:10:18.511Z,97.31
2019-03-17T19:12:47.112Z,97.21
2019-03-17T19:15:19.804Z,97.85
2019-03-17T19:17:48.514Z,97.71
2019-03-17T19:20:24.380Z,99.52
2019-03-17T19:22:53.053Z,99.43
2019-03-17T19:25:24.754Z,100.00
2019-03-17T19:27:53.429Z,100.00
2019-03-17T19:30:22.994Z,100.00
2019-03-17T19:32:51.614Z,100.00
2019-03-17T19:35:20.838Z,100.00
2019-03-17T19:37:49.362Z,100.00
2019-03-17T19:40:23.035Z,100.00
2019-03-17T19:42:59.163Z,100.00
2019-03-17T19:45:22.222Z,100.00
2019-03-17T19:47:50.902Z,100.00
2019-03-17T19:50:20.853Z,100.00
2019-03-17T19:52:49.448Z,100.00
2019-03-17T19:55:18.054Z,100.00
2019-03-17T19:57:46.711Z,100.00
2019-03-17T20:00:22.146Z,100.00
2019-03-17T20:02:50.958Z,100.00
2019-03-17T20:05:19.514Z,100.00
2019-03-17T20:07:48.672Z,100.00
2019-03-17T20:10:20.734Z,100.00
2019-03-17T20:12:49.619Z,100.00
2019-03-17T20:15:18.181Z,100.00
2019-03-17T20:17:46.731Z,100.00
2019-03-17T20:20:16.251Z,100.00
2019-03-17T20:22:46.070Z,100.00
2019-03-17T20:25:16.063Z,100.00
2019-03-17T20:27:44.631Z,100.00
2019-03-17T20:30:20.662Z,100.00
2019-03-17T20:32:49.872Z,100.00
2019-03-17T20:35:18.485Z,100.00
2019-03-17T20:37:47.212Z,100.00
2019-03-17T20:40:17.902Z,100.00
2019-03-17T20:42:46.681Z,100.00
2019-03-17T20:45:16.226Z,100.00
2019-03-17T20:47:45.024Z,100.00
2019-03-17T20:50:21.317Z,100.00
2019-03-17T20:52:50.403Z,100.00
2019-03-17T20:55:20.901Z,100.00
2019-03-17T20:57:50.034Z,100.00
2019-03-17T21:00:19.622Z,100.00
2019-03-17T21:02:48.884Z,100.00
2019-03-17T21:05:17.504Z,100.00
2019-03-17T21:07:46.133Z,100.00
2019-03-17T21:10:17.001Z,100.00
2019-03-17T21:12:46.133Z,100.00
2019-03-17T21:15:19.021Z,100.00
2019-03-17T21:17:47.905Z,100.00
2019-03-17T21:20:18.487Z,100.00
2019-03-17T21:22:47.059Z,100.00
2019-03-17T21:25:16.647Z,100.00
2019-03-17T21:27:45.348Z,100.00
2019-03-17T21:30:21.915Z,100.00
2019-03-17T21:32:50.516Z,100.00
2019-03-17T21:35:19.159Z,100.00
2019-03-17T21:37:48.303Z,100.00
2019-03-17T21:40:17.283Z,100.00
2019-03-17T21:42:46.292Z,100.00
2019-03-17T21:45:16.811Z,100.00
2019-03-17T21:47:45.394Z,100.00
2019-03-17T21:50:21.357Z,100.00
2019-03-17T21:52:50.013Z,100.00
2019-03-17T21:55:18.935Z,100.00
2019-03-17T21:57:47.518Z,100.00
2019-03-17T22:00:17.327Z,100.00
2019-03-17T22:02:45.933Z,100.00
2019-03-17T22:05:15.070Z,100.00
2019-03-17T22:07:50.155Z,100.00
2019-03-17T22:10:19.563Z,100.00
2019-03-17T22:12:48.333Z,100.00
2019-03-17T22:15:18.679Z,100.00
2019-03-17T22:17:47.388Z,100.00
2019-03-17T22:20:16.420Z,100.00
2019-03-17T22:22:45.265Z,100.00
2019-03-17T22:25:15.171Z,100.00
2019-03-17T22:27:43.928Z,100.00
2019-03-17T22:30:22.468Z,100.00
2019-03-17T22:32:51.098Z,100.00
2019-03-17T22:35:19.695Z,100.00
2019-03-17T22:37:48.298Z,100.00
2019-03-17T22:40:17.989Z,100.00
2019-03-17T22:42:46.862Z,100.00
2019-03-17T22:45:16.438Z,100.00
2019-03-17T22:47:45.004Z,100.00
2019-03-17T22:50:17.432Z,100.00
2019-03-17T22:52:46.136Z,100.00
2019-03-17T22:55:15.695Z,100.00
2019-03-17T22:57:44.493Z,100.00
2019-03-17T23:00:26.330Z,100.00
2019-03-17T23:02:55.023Z,100.00
2019-03-17T23:05:23.936Z,100.00
2019-03-17T23:07:52.649Z,100.00
2019-03-17T23:10:21.263Z,100.00
2019-03-17T23:12:49.854Z,100.00
2019-03-17T23:15:18.470Z,100.00
2019-03-17T23:17:47.033Z,100.00
2019-03-17T23:20:16.427Z,100.00
2019-03-17T23:22:44.983Z,100.00
2019-03-17T23:25:14.364Z,100.00
2019-03-17T23:27:42.886Z,100.00
2019-03-17T23:30:17.611Z,100.00
2019-03-17T23:32:49.059Z,100.00
2019-03-17T23:35:16.410Z,100.00
2019-03-17T23:37:45.009Z,100.00
2019-03-17T23:40:14.907Z,100.00
2019-03-17T23:42:43.455Z,100.00
2019-03-17T23:45:13.105Z,100.00
2019-03-17T23:47:41.665Z,100.00
2019-03-17T23:50:12.508Z,100.00
2019-03-17T23:52:41.182Z,100.00
2019-03-17T23:55:12.070Z,100.00
2019-03-17T23:57:40.719Z,100.00
